Time;durP1;ratioP1;P1;durP2;ratioP2;P2;SDS_P1;SDS_P2;PMS_P1;PMS_P2;Temp;Humidity;BMP_temperature;BMP_pressure;BME280_temperature;BME280_humidity;BME280_pressure;Samples;Min_cycle;Max_cycle;Signal;HPM_P1;HPM_P2
2024/03/03 00:02:10;;;;;;;29.60;25.77;;;9.50;1.00;;;;;;4803188;29;20191;-60
2024/03/03 00:04:36;;;;;;;28.13;24.57;;;9.50;1.00;;;;;;4796877;29;21271;-60
2024/03/03 00:07:02;;;;;;;27.43;24.30;;;9.50;1.00;;;;;;4800605;29;20498;-59
2024/03/03 00:09:27;;;;;;;30.80;25.87;;;9.50;99.90;;;;;;4805754;29;21463;-59
2024/03/03 00:11:53;;;;;;;26.70;24.07;;;9.50;99.90;;;;;;4799987;29;21122;-59
2024/03/03 00:14:21;;;;;;;27.37;24.47;;;9.50;99.90;;;;;;4798772;29;20209;-59
2024/03/03 00:16:46;;;;;;;27.20;24.30;;;9.60;99.90;;;;;;4805431;29;20201;-59
2024/03/03 00:19:12;;;;;;;26.23;23.53;;;9.60;99.90;;;;;;4803029;29;20447;-60
2024/03/03 00:21:38;;;;;;;29.80;24.47;;;9.60;99.90;;;;;;4794250;29;20719;-60
2024/03/03 00:24:04;;;;;;;29.30;23.37;;;9.50;99.90;;;;;;4802489;29;20233;-60
2024/03/03 00:26:32;;;;;;;26.70;24.00;;;9.60;99.90;;;;;;4797399;29;20213;-60
2024/03/03 00:28:58;;;;;;;24.90;22.40;;;9.60;99.90;;;;;;4799647;29;20452;-59
2024/03/03 00:31:24;;;;;;;26.47;22.90;;;9.60;99.90;;;;;;4798759;29;20512;-43
2024/03/03 00:33:49;;;;;;;24.40;21.80;;;9.70;99.90;;;;;;4803150;29;20225;-43
2024/03/03 00:36:15;;;;;;;23.63;21.17;;;9.80;99.90;;;;;;4805271;29;20276;-44
2024/03/03 00:38:40;;;;;;;24.03;21.63;;;9.90;99.90;;;;;;4800360;29;20197;-43
2024/03/03 00:41:06;;;;;;;24.73;22.13;;;10.00;39.60;;;;;;4804141;29;20190;-48
2024/03/03 00:43:32;;;;;;;25.37;22.77;;;10.00;1.00;;;;;;4805300;29;20293;-44
2024/03/03 00:45:58;;;;;;;23.53;21.23;;;10.10;1.00;;;;;;4810013;29;20458;-49
2024/03/03 00:48:24;;;;;;;25.70;23.10;;;10.20;99.90;;;;;;4798836;29;20452;-43
2024/03/03 00:50:49;;;;;;;24.47;21.90;;;10.30;99.90;;;;;;4805928;29;20190;-45
2024/03/03 00:53:15;;;;;;;23.27;21.03;;;10.30;1.00;;;;;;4813347;29;20218;-49
2024/03/03 00:55:47;;;;;;;23.60;21.27;;;10.40;1.00;;;;;;4802305;29;21282;-44
2024/03/03 00:58:16;;;;;;;23.93;21.77;;;10.50;99.90;;;;;;4804797;29;20195;-46
2024/03/03 01:00:42;;;;;;;22.20;19.90;;;10.50;1.00;;;;;;4800473;29;20455;-49
2024/03/03 01:03:08;;;;;;;22.40;20.30;;;10.60;1.00;;;;;;4807211;29;20507;-47
2024/03/03 01:05:35;;;;;;;22.70;20.40;;;10.60;99.90;;;;;;4805708;29;20495;-60
2024/03/03 01:08:00;;;;;;;22.37;20.17;;;10.60;99.90;;;;;;4801727;29;20463;-60
2024/03/03 01:10:26;;;;;;;23.30;21.10;;;10.60;99.90;;;;;;4797875;29;20459;-60
2024/03/03 01:12:52;;;;;;;22.00;19.83;;;10.70;99.90;;;;;;4825409;29;20510;-51
2024/03/03 01:15:18;;;;;;;24.27;21.77;;;10.70;41.90;;;;;;4805252;29;20198;-61
2024/03/03 01:17:44;;;;;;;22.57;20.43;;;10.60;1.00;;;;;;4798152;29;20262;-60
2024/03/03 01:20:10;;;;;;;21.13;19.23;;;10.70;1.00;;;;;;4806028;29;20190;-59
2024/03/03 01:22:36;;;;;;;23.77;21.53;;;10.60;1.00;;;;;;4798299;29;20927;-60
2024/03/03 01:25:02;;;;;;;24.20;21.83;;;10.70;1.00;;;;;;4800830;29;20454;-61
2024/03/03 01:27:28;;;;;;;23.27;21.17;;;10.70;1.00;;;;;;4805795;29;20182;-61
2024/03/03 01:29:54;;;;;;;23.10;20.80;;;10.70;1.00;;;;;;4810654;29;20458;-60
2024/03/03 01:32:22;;;;;;;24.60;22.23;;;10.80;1.00;;;;;;4811354;29;20281;-58
2024/03/03 01:34:48;;;;;;;22.97;20.87;;;10.70;99.90;;;;;;4800614;29;20519;-60
2024/03/03 01:37:14;;;;;;;24.13;21.53;;;10.70;99.90;;;;;;4802412;29;20440;-61
2024/03/03 01:39:42;;;;;;;23.43;21.13;;;10.70;99.90;;;;;;4803019;29;21576;-61
2024/03/03 01:42:07;;;;;;;23.53;21.20;;;10.80;99.90;;;;;;4813276;29;20242;-57
2024/03/03 01:44:33;;;;;;;23.80;21.23;;;10.80;99.90;;;;;;4805119;29;20474;-59
2024/03/03 01:46:59;;;;;;;23.37;21.07;;;10.80;99.90;;;;;;4808275;29;20653;-60
2024/03/03 01:49:26;;;;;;;22.37;20.27;;;10.70;95.80;;;;;;4817149;29;20221;-51
2024/03/03 01:51:52;;;;;;;22.20;20.20;;;10.70;1.00;;;;;;4804421;29;20448;-60
2024/03/03 01:54:19;;;;;;;22.60;20.60;;;10.70;1.00;;;;;;4804394;29;20570;-60
2024/03/03 01:56:48;;;;;;;28.80;21.17;;;10.70;1.00;;;;;;4809806;29;20806;-59
2024/03/03 01:59:15;;;;;;;21.60;19.70;;;10.70;3.70;;;;;;4805858;29;20443;-60
2024/03/03 02:01:42;;;;;;;23.03;20.83;;;10.70;1.00;;;;;;4808525;29;20478;-60
2024/03/03 02:04:09;;;;;;;22.37;20.27;;;10.70;1.00;;;;;;4802721;29;20470;-60
2024/03/03 02:06:38;;;;;;;22.33;20.00;;;10.70;1.00;;;;;;4802289;29;20498;-60
2024/03/03 02:09:06;;;;;;;22.57;20.37;;;10.60;1.00;;;;;;4800990;29;20534;-61
2024/03/03 02:11:32;;;;;;;22.50;20.33;;;10.60;1.00;;;;;;4811926;29;20439;-62
2024/03/03 02:13:57;;;;;;;21.53;19.43;;;10.60;1.00;;;;;;4804851;29;20892;-58
2024/03/03 02:16:23;;;;;;;21.47;19.47;;;10.50;1.00;;;;;;4810794;29;20193;-59
2024/03/03 02:18:49;;;;;;;21.50;19.50;;;10.50;1.00;;;;;;4807441;29;20179;-61
2024/03/03 02:21:14;;;;;;;22.17;20.10;;;10.40;1.00;;;;;;4805700;29;20538;-60
2024/03/03 02:23:40;;;;;;;21.67;19.63;;;10.30;36.30;;;;;;4804111;29;20190;-60
2024/03/03 02:26:05;;;;;;;23.50;21.10;;;10.30;99.90;;;;;;4807328;29;20214;-60
2024/03/03 02:28:31;;;;;;;22.70;20.50;;;10.30;99.90;;;;;;4808498;29;20201;-60
2024/03/03 02:30:57;;;;;;;21.63;19.50;;;10.30;99.90;;;;;;4798259;29;20202;-45
2024/03/03 02:33:23;;;;;;;21.03;18.93;;;10.20;99.90;;;;;;4802803;29;20499;-45
2024/03/03 02:35:48;;;;;;;22.47;20.27;;;10.20;99.90;;;;;;4806322;29;20193;-42
2024/03/03 02:38:14;;;;;;;22.30;20.13;;;10.30;99.90;;;;;;4811673;29;20269;-44
2024/03/03 02:40:40;;;;;;;22.07;19.87;;;10.30;99.90;;;;;;4798248;29;20606;-42
2024/03/03 02:43:07;;;;;;;21.87;19.60;;;10.30;99.90;;;;;;4809084;29;20201;-48
2024/03/03 02:45:33;;;;;;;22.20;20.07;;;10.30;1.00;;;;;;4806716;29;20192;-46
2024/03/03 02:47:59;;;;;;;21.70;19.80;;;10.30;1.00;;;;;;4812653;29;20797;-45
2024/03/03 02:50:24;;;;;;;22.10;20.00;;;10.30;1.00;;;;;;4803770;29;20195;-46
2024/03/03 02:52:50;;;;;;;21.77;19.40;;;10.40;1.00;;;;;;4809547;29;20217;-48
2024/03/03 02:55:16;;;;;;;23.60;21.17;;;10.40;1.00;;;;;;4798392;29;20187;-44
2024/03/03 02:57:41;;;;;;;22.37;20.17;;;10.40;1.00;;;;;;4802237;29;20198;-41
2024/03/03 03:00:11;;;;;;;23.50;21.03;;;10.40;15.70;;;;;;4808083;29;20542;-43
2024/03/03 03:02:37;;;;;;;22.03;19.93;;;10.40;99.90;;;;;;4798984;29;20187;-44
2024/03/03 03:05:03;;;;;;;21.33;19.33;;;10.40;99.90;;;;;;4805281;29;20899;-47
2024/03/03 03:08:12;;;;;;;23.30;21.20;;;10.50;99.90;;;;;;4799434;29;20512;-48
2024/03/03 03:10:39;;;;;;;23.77;21.13;;;10.50;99.90;;;;;;4801340;29;20444;-49
2024/03/03 03:13:04;;;;;;;23.03;20.83;;;10.50;99.90;;;;;;4797630;29;20483;-42
2024/03/03 03:15:35;;;;;;;22.30;20.10;;;10.40;99.90;;;;;;4800776;29;20459;-44
2024/03/03 03:18:03;;;;;;;24.67;22.10;;;10.30;1.00;;;;;;4806743;29;20179;-46
2024/03/03 03:20:29;;;;;;;23.90;21.47;;;10.30;1.00;;;;;;4801280;29;20444;-42
2024/03/03 03:22:55;;;;;;;23.20;20.70;;;10.30;1.00;;;;;;4800261;29;20443;-45
2024/03/03 03:25:20;;;;;;;22.70;20.50;;;10.30;1.00;;;;;;4796451;29;20677;-45
2024/03/03 03:27:46;;;;;;;22.77;20.50;;;10.30;1.00;;;;;;4804648;29;20197;-42
2024/03/03 03:30:12;;;;;;;22.13;19.93;;;10.20;1.00;;;;;;4814412;29;20202;-45
2024/03/03 03:32:38;;;;;;;22.30;19.90;;;10.20;99.90;;;;;;4803743;29;20291;-41
2024/03/03 03:35:04;;;;;;;22.50;20.60;;;10.20;99.90;;;;;;4802040;29;20451;-45
2024/03/03 03:37:30;;;;;;;23.10;20.70;;;10.10;99.90;;;;;;4802364;29;20458;-42
2024/03/03 03:39:56;;;;;;;23.63;20.77;;;10.10;1.00;;;;;;4800193;29;20443;-42
2024/03/03 03:42:22;;;;;;;22.07;19.80;;;10.00;1.00;;;;;;4800763;29;20269;-45
2024/03/03 03:44:47;;;;;;;23.63;21.20;;;9.90;1.00;;;;;;4802349;29;20444;-42
2024/03/03 03:47:13;;;;;;;22.57;20.27;;;9.90;90.00;;;;;;4800908;29;20193;-49
2024/03/03 03:49:39;;;;;;;24.20;21.80;;;9.90;99.90;;;;;;4805256;29;20634;-44
2024/03/03 03:52:05;;;;;;;21.60;19.40;;;9.90;99.90;;;;;;4802617;29;20707;-43
2024/03/03 03:54:31;;;;;;;22.80;20.60;;;9.80;99.90;;;;;;4802083;29;20234;-50
2024/03/03 03:56:58;;;;;;;21.53;19.43;;;9.80;99.90;;;;;;4797538;29;20456;-44
2024/03/03 03:59:24;;;;;;;22.97;20.40;;;9.80;99.90;;;;;;4806845;29;20451;-42
2024/03/03 04:01:51;;;;;;;22.70;20.37;;;9.80;99.90;;;;;;4804766;29;20466;-45
2024/03/03 04:04:17;;;;;;;21.80;19.67;;;9.70;99.90;;;;;;4821617;29;20462;-43
2024/03/03 04:06:43;;;;;;;20.77;18.73;;;9.70;1.00;;;;;;4800157;29;20491;-42
2024/03/03 04:09:08;;;;;;;20.60;18.60;;;9.60;1.00;;;;;;4799156;29;20636;-43
2024/03/03 04:11:34;;;;;;;21.40;19.30;;;9.60;1.00;;;;;;4804453;29;20190;-42
2024/03/03 04:14:00;;;;;;;21.90;19.80;;;9.70;1.00;;;;;;4810469;29;20267;-44
2024/03/03 04:16:26;;;;;;;22.87;20.53;;;9.60;1.00;;;;;;4795492;29;20197;-43
2024/03/03 04:18:51;;;;;;;22.20;19.47;;;9.60;1.00;;;;;;4797032;29;21326;-50
2024/03/03 04:21:17;;;;;;;20.47;18.53;;;9.60;1.00;;;;;;4798511;29;20199;-47
2024/03/03 04:23:42;;;;;;;23.27;20.37;;;9.50;1.00;;;;;;4808187;29;20588;-42
2024/03/03 04:26:09;;;;;;;22.37;20.20;;;9.50;99.90;;;;;;4803902;29;20196;-48
2024/03/03 04:28:35;;;;;;;22.23;20.13;;;9.50;99.90;;;;;;4807518;29;20488;-47
2024/03/03 04:31:06;;;;;;;21.47;19.37;;;9.40;99.90;;;;;;4807007;29;20449;-41
2024/03/03 04:33:33;;;;;;;20.80;18.70;;;9.40;99.90;;;;;;4802448;29;20264;-43
2024/03/03 04:35:59;;;;;;;23.77;19.13;;;9.40;99.90;;;;;;4799787;29;20440;-48
2024/03/03 04:38:25;;;;;;;22.77;20.57;;;9.40;99.90;;;;;;4809276;29;21459;-41
2024/03/03 04:40:50;;;;;;;23.40;21.10;;;9.30;99.90;;;;;;4802791;29;20924;-46
2024/03/03 04:43:16;;;;;;;23.03;20.77;;;9.30;1.00;;;;;;4808112;29;20289;-42
2024/03/03 04:45:41;;;;;;;24.43;21.50;;;9.30;1.00;;;;;;4805853;29;20199;-44
2024/03/03 04:48:07;;;;;;;22.63;20.53;;;9.30;1.00;;;;;;4798534;29;20346;-44
2024/03/03 04:50:33;;;;;;;23.60;21.10;;;9.30;1.00;;;;;;4803271;29;20908;-46
2024/03/03 04:52:58;;;;;;;23.63;21.23;;;9.30;1.00;;;;;;4799200;29;20248;-47
2024/03/03 04:55:24;;;;;;;23.47;21.17;;;9.30;1.00;;;;;;4810479;29;20191;-45
2024/03/03 04:57:51;;;;;;;22.47;20.27;;;9.30;1.00;;;;;;4801341;29;20214;-44
2024/03/03 05:00:17;;;;;;;22.17;19.83;;;9.20;1.00;;;;;;4802399;29;20916;-47
2024/03/03 05:02:43;;;;;;;22.60;20.30;;;9.20;1.00;;;;;;4807101;29;20446;-46
2024/03/03 05:05:09;;;;;;;21.03;19.00;;;9.20;1.00;;;;;;4803800;29;20220;-42
2024/03/03 05:07:35;;;;;;;22.50;20.23;;;9.20;1.00;;;;;;4804096;29;20534;-50
2024/03/03 05:10:01;;;;;;;20.57;18.47;;;9.20;1.00;;;;;;4798437;29;20463;-43
2024/03/03 05:12:27;;;;;;;22.70;20.50;;;9.10;1.00;;;;;;4797652;29;20936;-49
2024/03/03 05:14:53;;;;;;;22.97;20.63;;;9.10;1.00;;;;;;4810941;29;20474;-44
2024/03/03 05:17:19;;;;;;;22.00;19.90;;;9.10;1.00;;;;;;4805545;29;20186;-47
2024/03/03 05:19:45;;;;;;;23.10;20.80;;;9.10;1.00;;;;;;4810342;29;20190;-45
2024/03/03 05:22:10;;;;;;;23.00;20.70;;;9.10;1.00;;;;;;4803400;29;20809;-42
2024/03/03 05:24:36;;;;;;;22.87;20.70;;;9.10;1.00;;;;;;4810574;29;20422;-46
2024/03/03 05:27:03;;;;;;;22.77;20.57;;;9.10;1.00;;;;;;4813271;29;21283;-43
2024/03/03 05:29:28;;;;;;;24.33;21.80;;;9.10;1.00;;;;;;4811226;29;20190;-42
2024/03/03 05:31:54;;;;;;;23.57;21.27;;;9.10;1.00;;;;;;4809400;29;20430;-44
2024/03/03 05:34:21;;;;;;;23.07;20.93;;;9.10;1.00;;;;;;4806397;29;20518;-44
2024/03/03 05:36:47;;;;;;;23.57;21.27;;;9.10;1.00;;;;;;4810980;29;20689;-45
2024/03/03 05:39:15;;;;;;;23.60;21.40;;;9.10;1.00;;;;;;4809743;29;20548;-44
2024/03/03 05:41:41;;;;;;;24.63;22.00;;;9.10;1.00;;;;;;4804042;29;20982;-45
2024/03/03 05:44:07;;;;;;;25.03;22.13;;;9.10;1.00;;;;;;4806037;29;20435;-42
2024/03/03 05:46:34;;;;;;;23.00;20.73;;;9.00;1.00;;;;;;4805690;29;21092;-43
2024/03/03 05:49:00;;;;;;;23.03;20.30;;;9.00;1.00;;;;;;4803213;29;20503;-60
2024/03/03 05:51:25;;;;;;;23.97;21.30;;;9.00;1.00;;;;;;4798917;29;20818;-61
2024/03/03 05:53:51;;;;;;;22.97;20.70;;;9.00;1.00;;;;;;4804125;29;20271;-60
2024/03/03 05:56:17;;;;;;;23.60;21.20;;;9.00;1.00;;;;;;4814128;29;20189;-60
2024/03/03 05:58:43;;;;;;;22.57;20.27;;;9.10;1.00;;;;;;4806868;29;20186;-60
2024/03/03 06:01:09;;;;;;;23.67;21.10;;;9.10;1.00;;;;;;4804964;29;20443;-60
2024/03/03 06:03:36;;;;;;;23.83;21.60;;;9.10;1.00;;;;;;4805434;29;20819;-61
2024/03/03 06:06:02;;;;;;;22.60;20.43;;;9.20;1.00;;;;;;4808081;29;20479;-59
2024/03/03 06:08:28;;;;;;;27.17;23.17;;;9.20;1.00;;;;;;4802352;29;20786;-60
2024/03/03 06:10:54;;;;;;;23.63;21.43;;;9.20;1.00;;;;;;4823871;29;20447;-60
2024/03/03 06:13:19;;;;;;;23.50;20.97;;;9.20;1.00;;;;;;4801057;29;20479;-60
2024/03/03 06:15:47;;;;;;;24.97;22.57;;;9.30;1.00;;;;;;4805232;29;20443;-60
2024/03/03 06:18:14;;;;;;;23.40;20.77;;;9.30;1.00;;;;;;4806763;29;20239;-60
2024/03/03 06:20:39;;;;;;;24.30;21.73;;;9.30;1.00;;;;;;4800177;29;20452;-59
2024/03/03 06:23:05;;;;;;;27.07;22.07;;;9.30;1.00;;;;;;4797609;29;20439;-60
2024/03/03 06:25:31;;;;;;;24.47;21.70;;;9.40;1.00;;;;;;4798368;29;20294;-60
2024/03/03 06:27:57;;;;;;;24.77;22.17;;;9.40;1.00;;;;;;4817893;29;20207;-59
2024/03/03 06:30:23;;;;;;;23.70;21.30;;;9.40;1.00;;;;;;4806686;29;20454;-60
2024/03/03 06:32:48;;;;;;;23.27;20.93;;;9.50;1.00;;;;;;4806030;29;20813;-53
2024/03/03 06:35:14;;;;;;;23.30;21.00;;;9.50;1.00;;;;;;4810361;29;20261;-61
2024/03/03 06:37:41;;;;;;;23.30;21.20;;;9.50;1.00;;;;;;4811030;29;20193;-48
2024/03/03 06:40:09;;;;;;;24.73;22.13;;;9.50;1.00;;;;;;4808491;29;20197;-60
2024/03/03 06:42:35;;;;;;;24.87;21.77;;;9.60;1.00;;;;;;4804167;29;20411;-43
2024/03/03 06:45:01;;;;;;;24.87;22.20;;;9.70;1.00;;;;;;4812362;29;21374;-45
2024/03/03 06:47:31;;;;;;;22.93;20.73;;;9.70;1.00;;;;;;4813193;29;20550;-42
2024/03/03 06:49:57;;;;;;;23.50;21.30;;;9.70;1.00;;;;;;4806272;29;20240;-43
2024/03/03 06:52:22;;;;;;;23.40;21.10;;;9.70;1.00;;;;;;4808593;29;20514;-43
2024/03/03 06:54:48;;;;;;;23.73;21.37;;;9.80;1.00;;;;;;4796313;29;20340;-47
2024/03/03 06:57:14;;;;;;;22.93;20.80;;;9.80;1.00;;;;;;4802902;29;20186;-44
2024/03/03 06:59:40;;;;;;;25.37;22.10;;;9.90;1.00;;;;;;4808242;29;20551;-42
2024/03/03 07:02:06;;;;;;;23.77;21.30;;;9.90;99.90;;;;;;4800317;29;20258;-48
2024/03/03 07:04:32;;;;;;;23.70;21.20;;;10.00;99.90;;;;;;4796513;29;20983;-49
2024/03/03 07:06:58;;;;;;;23.77;21.30;;;10.00;99.90;;;;;;4811512;29;20514;-43
2024/03/03 07:09:24;;;;;;;23.90;21.43;;;10.10;99.90;;;;;;4802475;29;20458;-46
2024/03/03 07:11:56;;;;;;;23.23;21.00;;;10.10;99.90;;;;;;4812854;29;20190;-46
2024/03/03 07:14:23;;;;;;;23.13;21.03;;;10.30;99.90;;;;;;4803998;29;20468;-48
2024/03/03 07:16:49;;;;;;;23.50;21.17;;;10.40;15.20;;;;;;4802727;29;20423;-44
2024/03/03 07:19:15;;;;;;;22.43;20.10;;;10.40;1.00;;;;;;4800776;29;20428;-44
2024/03/03 07:21:40;;;;;;;22.60;20.30;;;10.50;1.00;;;;;;4797804;29;20977;-45
2024/03/03 07:24:06;;;;;;;23.20;20.63;;;10.60;99.90;;;;;;4797137;29;20195;-45
2024/03/03 07:26:32;;;;;;;23.40;21.03;;;10.60;1.00;;;;;;4796714;29;20197;-43
2024/03/03 07:28:58;;;;;;;24.10;21.53;;;10.50;1.00;;;;;;4806416;29;20206;-45
2024/03/03 07:31:23;;;;;;;23.20;21.00;;;10.60;99.90;;;;;;4798058;29;20197;-47
2024/03/03 07:33:49;;;;;;;23.87;21.30;;;10.60;99.90;;;;;;4804724;29;20601;-47
2024/03/03 07:36:15;;;;;;;22.87;20.67;;;10.70;16.90;;;;;;4795799;29;20191;-46
2024/03/03 07:38:40;;;;;;;22.73;20.37;;;10.80;1.00;;;;;;4801769;29;20194;-42
2024/03/03 07:41:06;;;;;;;23.10;20.93;;;10.90;56.40;;;;;;4795093;29;20202;-45
2024/03/03 07:43:31;;;;;;;22.70;20.37;;;10.90;1.00;;;;;;4825690;29;20198;-41
2024/03/03 07:45:58;;;;;;;21.50;19.40;;;11.10;99.90;;;;;;4825736;29;20680;-43
2024/03/03 07:48:24;;;;;;;21.50;19.40;;;11.10;1.00;;;;;;4809777;29;20194;-49
2024/03/03 07:50:50;;;;;;;22.90;20.60;;;11.20;1.00;;;;;;4797676;29;21037;-47
2024/03/03 07:53:16;;;;;;;22.00;19.67;;;11.40;99.90;;;;;;4796881;29;20590;-43
2024/03/03 07:55:42;;;;;;;21.90;19.70;;;11.40;1.00;;;;;;4807233;29;20593;-48
2024/03/03 07:58:08;;;;;;;21.87;19.90;;;11.60;99.90;;;;;;4811996;29;20571;-45
2024/03/03 08:00:33;;;;;;;20.90;18.87;;;11.80;59.40;;;;;;4799996;29;20459;-44
2024/03/03 08:03:04;;;;;;;21.43;19.47;;;11.90;99.90;;;;;;4795634;29;21017;-48
2024/03/03 08:05:34;;;;;;;21.57;19.47;;;12.10;99.90;;;;;;4796437;29;20241;-49
2024/03/03 08:08:03;;;;;;;21.93;19.77;;;12.20;99.90;;;;;;4802865;29;20420;-45
2024/03/03 08:10:29;;;;;;;20.93;18.93;;;12.40;1.00;;;;;;4810229;29;20447;-44
2024/03/03 08:12:55;;;;;;;22.50;20.10;;;12.60;1.00;;;;;;4798723;29;20466;-46
2024/03/03 08:15:22;;;;;;;21.10;19.03;;;12.80;1.00;;;;;;4801950;29;20546;-50
2024/03/03 08:17:48;;;;;;;21.40;19.00;;;13.10;1.00;;;;;;4807536;29;20948;-45
2024/03/03 08:20:14;;;;;;;21.37;19.37;;;13.30;99.90;;;;;;4796445;29;20484;-47
2024/03/03 08:22:41;;;;;;;20.40;18.50;;;13.60;99.90;;;;;;4794238;29;20440;-48
2024/03/03 08:25:13;;;;;;;21.27;19.20;;;13.80;99.90;;;;;;4794781;29;21139;-44
2024/03/03 08:27:39;;;;;;;19.53;17.83;;;14.00;1.00;;;;;;4811699;29;20434;-45
2024/03/03 08:30:06;;;;;;;20.53;18.60;;;14.20;1.00;;;;;;4801569;29;20826;-45
2024/03/03 08:32:33;;;;;;;21.03;19.03;;;14.10;1.00;;;;;;4802740;29;21137;-44
2024/03/03 08:34:59;;;;;;;19.60;17.63;;;14.00;1.00;;;;;;4799866;29;20911;-47
2024/03/03 08:37:25;;;;;;;20.13;18.20;;;14.20;1.00;;;;;;4811397;29;20479;-49
2024/03/03 08:39:51;;;;;;;21.00;18.90;;;14.30;1.00;;;;;;4803560;29;21003;-48
2024/03/03 08:42:16;;;;;;;21.33;19.30;;;14.40;1.00;;;;;;4809102;29;20910;-47
2024/03/03 08:44:42;;;;;;;19.50;17.70;;;14.20;1.00;;;;;;4809913;29;20297;-45
2024/03/03 08:47:08;;;;;;;19.70;17.87;;;14.00;1.00;;;;;;4810960;29;20201;-45
2024/03/03 08:49:33;;;;;;;20.47;18.47;;;13.90;1.00;;;;;;4807048;29;20193;-43
2024/03/03 08:52:01;;;;;;;20.40;18.60;;;13.80;1.00;;;;;;4797788;29;20699;-43
2024/03/03 08:54:26;;;;;;;20.73;18.73;;;13.70;1.00;;;;;;4804183;29;20250;-46
2024/03/03 08:56:52;;;;;;;21.10;19.00;;;13.60;1.00;;;;;;4803258;29;20712;-59
2024/03/03 08:59:17;;;;;;;20.33;18.37;;;13.50;1.00;;;;;;4809169;29;20199;-56
2024/03/03 09:01:43;;;;;;;19.70;18.00;;;13.50;1.00;;;;;;4805558;29;20182;-59
2024/03/03 09:04:09;;;;;;;18.70;17.00;;;13.70;1.00;;;;;;4805021;29;20206;-58
2024/03/03 09:06:34;;;;;;;20.20;18.23;;;13.80;1.00;;;;;;4808797;29;20693;-58
2024/03/03 09:09:00;;;;;;;19.63;17.93;;;13.80;1.00;;;;;;4804286;29;21389;-56
2024/03/03 09:11:27;;;;;;;19.40;17.70;;;14.10;1.00;;;;;;4797162;29;20309;-59
2024/03/03 09:13:53;;;;;;;18.80;17.20;;;14.30;1.00;;;;;;4809838;29;20210;-56
2024/03/03 09:16:18;;;;;;;18.83;17.20;;;14.20;1.00;;;;;;4796657;29;20449;-56
2024/03/03 09:18:44;;;;;;;19.13;17.23;;;14.00;1.00;;;;;;4808661;29;20198;-59
2024/03/03 09:21:10;;;;;;;20.03;18.17;;;14.10;1.00;;;;;;4799248;29;20757;-55
2024/03/03 09:23:36;;;;;;;21.00;19.00;;;14.10;1.00;;;;;;4798036;29;20226;-60
2024/03/03 09:26:01;;;;;;;19.57;17.87;;;14.20;1.00;;;;;;4803768;29;20699;-60
2024/03/03 09:28:27;;;;;;;18.10;16.60;;;14.10;1.00;;;;;;4813793;29;20470;-45
2024/03/03 09:30:54;;;;;;;20.43;18.43;;;14.10;1.00;;;;;;4802803;29;20255;-47
2024/03/03 09:33:20;;;;;;;20.70;18.83;;;13.90;1.00;;;;;;4799314;29;20470;-46
2024/03/03 09:35:45;;;;;;;19.43;17.53;;;13.90;1.00;;;;;;4797560;29;20425;-45
2024/03/03 09:38:11;;;;;;;20.10;18.17;;;13.70;1.00;;;;;;4800590;29;20199;-42
2024/03/03 09:40:37;;;;;;;19.70;18.03;;;13.60;1.00;;;;;;4802189;29;20232;-46
2024/03/03 09:43:03;;;;;;;17.40;15.77;;;13.50;1.00;;;;;;4797817;29;20194;-46
2024/03/03 09:45:30;;;;;;;19.23;17.43;;;13.50;1.00;;;;;;4787882;29;20230;-44
2024/03/03 09:47:58;;;;;;;21.00;17.57;;;13.30;1.00;;;;;;4779778;29;20563;-45
2024/03/03 09:50:25;;;;;;;27.23;18.60;;;13.20;1.00;;;;;;4782445;29;20452;-44
2024/03/03 09:52:53;;;;;;;22.20;18.30;;;13.40;1.00;;;;;;4780458;29;20448;-47
2024/03/03 09:55:19;;;;;;;19.90;18.00;;;13.50;1.00;;;;;;4781196;29;20421;-45
2024/03/03 09:57:45;;;;;;;21.13;18.17;;;13.60;1.00;;;;;;4772518;29;20437;-45
2024/03/03 10:00:11;;;;;;;20.50;18.70;;;13.60;1.00;;;;;;4777529;29;20486;-43
2024/03/03 10:02:39;;;;;;;18.67;16.97;;;13.50;1.00;;;;;;4784824;29;20279;-44
2024/03/03 10:05:07;;;;;;;20.37;18.47;;;13.40;1.00;;;;;;4787741;29;20458;-47
2024/03/03 10:07:55;;;;;;;19.97;18.17;;;13.30;99.90;;;;;;4783462;29;20452;-44
2024/03/03 10:10:26;;;;;;;16.87;15.27;;;13.30;1.00;;;;;;4793407;29;21293;-48
2024/03/03 10:12:52;;;;;;;17.90;16.30;;;13.50;1.00;;;;;;4779386;29;20445;-44
2024/03/03 10:15:20;;;;;;;17.70;16.07;;;13.70;1.00;;;;;;4783058;29;20494;-60
2024/03/03 10:17:46;;;;;;;16.47;14.93;;;13.70;1.00;;;;;;4777841;29;20929;-61
2024/03/03 10:20:12;;;;;;;18.67;16.77;;;13.80;1.00;;;;;;4794334;29;20481;-47
2024/03/03 10:22:40;;;;;;;20.17;18.27;;;13.80;1.00;;;;;;4784752;29;21020;-45
2024/03/03 10:25:11;;;;;;;19.03;17.33;;;13.70;1.00;;;;;;4789264;29;20938;-48
2024/03/03 10:28:11;;;;;;;19.37;17.23;;;13.70;1.00;;;;;;4795234;29;20756;-44
2024/03/03 10:30:36;;;;;;;17.93;16.33;;;13.90;1.00;;;;;;4791571;29;20635;-44
2024/03/03 10:33:04;;;;;;;18.10;16.20;;;13.90;1.00;;;;;;4789336;29;20967;-47
2024/03/03 10:35:30;;;;;;;18.60;17.00;;;13.80;1.00;;;;;;4786707;29;20191;-45
2024/03/03 10:38:01;;;;;;;18.73;17.10;;;13.90;1.00;;;;;;4778267;29;20460;-48
2024/03/03 10:40:28;;;;;;;19.00;17.40;;;13.90;1.00;;;;;;4782009;29;20817;-44
2024/03/03 10:42:54;;;;;;;17.40;15.80;;;13.70;1.00;;;;;;4779591;29;20554;-44
2024/03/03 10:45:20;;;;;;;18.17;16.57;;;13.90;1.00;;;;;;4793746;29;20413;-49
2024/03/03 10:47:48;;;;;;;19.33;17.63;;;14.20;1.00;;;;;;4783274;29;20428;-46
2024/03/03 10:50:22;;;;;;;18.50;16.70;;;14.30;1.00;;;;;;4786387;29;20538;-47
2024/03/03 10:52:52;;;;;;;17.73;16.13;;;14.60;1.00;;;;;;4790057;29;21002;-44
2024/03/03 10:55:18;;;;;;;20.00;18.00;;;14.70;1.00;;;;;;4786597;29;20516;-46
2024/03/03 10:57:44;;;;;;;19.87;18.07;;;14.70;99.90;;;;;;4781577;29;20424;-43
2024/03/03 11:00:22;;;;;;;18.37;16.70;;;14.80;1.00;;;;;;4786901;29;20452;-49
2024/03/03 11:02:51;;;;;;;18.93;17.33;;;15.00;1.00;;;;;;4777509;29;20436;-51
2024/03/03 11:05:17;;;;;;;20.20;18.43;;;15.60;1.00;;;;;;4780541;29;20519;-48
2024/03/03 11:07:43;;;;;;;19.97;18.13;;;16.80;1.00;;;;;;4780741;29;20500;-44
2024/03/03 11:10:09;;;;;;;18.47;16.97;;;17.70;1.00;;;;;;4782356;29;20443;-49
2024/03/03 11:12:37;;;;;;;17.33;15.83;;;18.60;99.90;;;;;;4779379;29;20449;-46
2024/03/03 11:15:07;;;;;;;18.70;17.20;;;19.20;99.90;;;;;;4783764;29;20497;-46
2024/03/03 11:17:38;;;;;;;17.63;16.13;;;19.80;99.90;;;;;;4782466;29;20443;-46
2024/03/03 11:20:07;;;;;;;19.20;17.70;;;19.90;99.90;;;;;;4784622;29;20425;-45
2024/03/03 11:22:40;;;;;;;19.03;17.43;;;19.90;99.90;;;;;;4789926;29;20436;-46
2024/03/03 11:25:09;;;;;;;19.43;17.73;;;19.10;99.90;;;;;;4779607;29;20476;-44
2024/03/03 11:27:38;;;;;;;19.00;17.20;;;18.70;99.90;;;;;;4782299;29;20441;-45
2024/03/03 11:30:08;;;;;;;19.17;17.67;;;18.40;99.90;;;;;;4782646;29;20520;-44
2024/03/03 11:32:35;;;;;;;18.90;17.20;;;19.00;99.90;;;;;;4777920;29;20487;-48
2024/03/03 11:35:03;;;;;;;20.03;18.23;;;19.00;99.90;;;;;;4781697;29;20484;-43
2024/03/03 11:37:30;;;;;;;20.03;18.50;;;18.50;99.90;;;;;;4792296;29;20702;-43
2024/03/03 11:40:04;;;;;;;20.23;18.43;;;18.70;99.90;;;;;;4784335;29;20466;-47
2024/03/03 11:42:33;;;;;;;17.60;16.20;;;19.70;99.90;;;;;;4783892;29;20698;-51
2024/03/03 11:45:03;;;;;;;18.83;17.17;;;20.10;99.90;;;;;;4784204;29;20452;-45
2024/03/03 11:47:29;;;;;;;18.00;16.60;;;20.20;99.90;;;;;;4778555;29;20452;-45
2024/03/03 11:49:56;;;;;;;19.27;17.47;;;20.20;99.90;;;;;;4787356;29;20827;-43
2024/03/03 11:52:45;;;;;;;18.87;17.30;;;19.80;99.90;;;;;;4789344;29;20432;-46
2024/03/03 11:55:24;;;;;;;18.63;17.00;;;19.20;99.90;;;;;;4785126;29;20496;-47
2024/03/03 11:58:03;;;;;;;18.77;17.07;;;18.90;99.90;;;;;;4788472;29;20990;-48
2024/03/03 12:00:30;;;;;;;18.47;16.87;;;19.20;99.90;;;;;;4788912;29;20424;-45
2024/03/03 12:03:00;;;;;;;17.30;16.00;;;19.60;99.90;;;;;;4779499;29;20459;-45
2024/03/03 12:05:26;;;;;;;17.57;16.27;;;19.60;99.90;;;;;;4779166;29;20480;-45
2024/03/03 12:07:54;;;;;;;18.70;17.13;;;19.70;99.90;;;;;;4780037;29;21632;-44
2024/03/03 12:10:32;;;;;;;19.27;17.70;;;19.70;99.90;;;;;;4781135;29;20464;-63
2024/03/03 12:13:01;;;;;;;18.73;17.33;;;19.50;99.90;;;;;;4777325;29;20545;-63
2024/03/03 12:15:28;;;;;;;18.23;16.73;;;19.30;99.90;;;;;;4780057;29;20431;-62
2024/03/03 12:17:56;;;;;;;17.93;16.43;;;19.10;99.90;;;;;;4783489;29;20424;-63
2024/03/03 12:20:24;;;;;;;18.83;17.27;;;18.70;99.90;;;;;;4787395;29;20887;-63
2024/03/03 12:22:51;;;;;;;17.30;15.90;;;18.30;99.90;;;;;;4785266;29;21133;-63
2024/03/03 12:25:18;;;;;;;17.23;16.00;;;17.80;99.90;;;;;;4786121;29;20448;-61
2024/03/03 12:27:54;;;;;;;18.03;16.43;;;17.70;99.90;;;;;;4786088;29;20428;-61
2024/03/03 12:30:36;;;;;;;17.67;16.33;;;17.50;99.90;;;;;;4777322;29;20464;-61
2024/03/03 12:33:06;;;;;;;19.33;17.77;;;17.70;99.90;;;;;;4782313;29;20428;-61
2024/03/03 12:35:33;;;;;;;18.37;16.87;;;17.90;99.90;;;;;;4776849;29;20804;-61